Gallant, Alabama
Current Conditions -  °F | °C
As of 4:35 AM on Monday 26 Jan 2015 (Local Time) from KGAD Reporting Station
Overcast Overcast  
Wind Chill: 37°   Ceiling: 2600
Heat Index: 43°   Visibility: 7mi
Dew Point: 37°   Wind: 12mph
Humidity: 81%   Direction: 280°W
Pressure: 29.84"   Gusts: NA
Location:  34°N, 86.25°W
Report Text: KGAD 261035Z 28010KT 250V320 7SM SCT018 OVC026 06/03 A2984 RMK AO1
Loading
Personal Weather Stations






























Interactive Weather Map New forecast layout! Learn more

10-Day Weather Forecast

Advertisements
Track Severe Weather on mobile